createdAt,value
2017-04-06T00:00:00.909Z,1023.86
2017-04-06T00:01:23.046Z,1023.97
2017-04-06T00:02:44.555Z,1024.09
2017-04-06T00:04:06.754Z,1023.91
2017-04-06T00:05:28.904Z,1023.93
2017-04-06T00:06:50.719Z,1023.86
2017-04-06T00:08:12.527Z,1023.86
2017-04-06T00:09:35.046Z,1023.91
2017-04-06T00:10:56.864Z,1023.9
2017-04-06T00:12:19.044Z,1023.84
2017-04-06T00:13:40.541Z,1023.82
2017-04-06T00:15:02.922Z,1023.89
2017-04-06T00:16:25.057Z,1023.92
2017-04-06T00:17:47.195Z,1023.94
2017-04-06T00:19:09.403Z,1023.9
2017-04-06T00:20:32.827Z,1023.95
2017-04-06T00:21:54.710Z,1023.92
2017-04-06T00:23:16.854Z,1023.95
2017-04-06T00:24:38.804Z,1023.89
2017-04-06T00:26:00.926Z,1023.93
2017-04-06T00:27:22.740Z,1023.94
2017-04-06T00:28:44.863Z,1023.9
2017-04-06T00:30:06.676Z,1023.97
2017-04-06T00:31:28.801Z,1023.98
2017-04-06T00:32:50.645Z,1023.96
2017-04-06T00:34:12.147Z,1023.88
2017-04-06T00:35:33.962Z,1023.92
2017-04-06T00:36:56.168Z,1023.99
2017-04-06T00:38:18.297Z,1023.94
2017-04-06T00:39:40.430Z,1024.05
2017-04-06T00:41:02.885Z,1023.92
2017-04-06T00:42:24.989Z,1023.9
2017-04-06T00:43:47.142Z,1023.9
2017-04-06T00:45:09.434Z,1023.92
2017-04-06T00:46:30.938Z,1023.82
2017-04-06T00:47:53.313Z,1023.91
2017-04-06T00:49:14.491Z,1023.84
2017-04-06T00:50:36.085Z,1023.8
2017-04-06T00:51:58.326Z,1023.79
2017-04-06T00:53:20.126Z,1023.86
2017-04-06T00:54:42.273Z,1023.85
2017-04-06T00:56:04.437Z,1023.83
2017-04-06T00:57:26.337Z,1023.94
2017-04-06T00:58:48.153Z,1023.88
2017-04-06T01:00:10.413Z,1023.87
2017-04-06T01:01:32.468Z,1023.87
2017-04-06T01:02:54.615Z,1023.86
2017-04-06T01:04:16.697Z,1023.89
2017-04-06T01:05:39.168Z,1023.91
2017-04-06T01:07:01.631Z,1023.83
2017-04-06T01:08:23.434Z,1023.77
2017-04-06T01:09:45.247Z,1023.78
2017-04-06T01:11:06.759Z,1023.71
2017-04-06T01:12:28.307Z,1023.7
2017-04-06T01:13:50.147Z,1023.73
2017-04-06T01:15:12.527Z,1023.73
2017-04-06T01:16:34.388Z,1023.77
2017-04-06T01:17:55.895Z,1023.72
2017-04-06T01:19:17.706Z,1023.82
2017-04-06T01:20:39.777Z,1023.84
2017-04-06T01:22:01.603Z,1023.81
2017-04-06T01:23:23.436Z,1023.86
2017-04-06T01:24:45.569Z,1023.9
2017-04-06T01:26:08.026Z,1023.77
2017-04-06T01:27:29.876Z,1023.82
2017-04-06T01:28:51.687Z,1023.8
2017-04-06T01:30:13.912Z,1023.78
2017-04-06T01:31:36.358Z,1023.84
2017-04-06T01:32:58.266Z,1023.75
2017-04-06T01:34:20.080Z,1023.79
2017-04-06T01:35:41.683Z,1023.8
2017-04-06T01:37:04.437Z,1023.78
2017-04-06T01:38:26.919Z,1023.8
2017-04-06T01:39:49.353Z,1023.88
2017-04-06T01:41:11.496Z,1023.91
2017-04-06T01:42:33.577Z,1023.97
2017-04-06T01:43:55.706Z,1024.03
2017-04-06T01:45:17.216Z,1024.02
2017-04-06T01:46:38.779Z,1024.02
2017-04-06T01:48:01.274Z,1024.04
2017-04-06T01:49:23.726Z,1024.04
2017-04-06T01:50:45.226Z,1024.05
2017-04-06T01:52:07.835Z,1024.06
2017-04-06T01:53:29.945Z,1024.05
2017-04-06T01:54:51.774Z,1024.07
2017-04-06T01:56:14.283Z,1024.16
2017-04-06T01:57:35.778Z,1024.08
2017-04-06T01:58:58.166Z,1024.11
2017-04-06T02:00:20.287Z,1024.1
2017-04-06T02:01:42.091Z,1024.11
2017-04-06T02:03:03.607Z,1024.16
2017-04-06T02:04:25.406Z,1024.1
2017-04-06T02:05:46.895Z,1024.05
2017-04-06T02:07:08.718Z,1024.15
2017-04-06T02:08:30.528Z,1024.18
2017-04-06T02:09:52.677Z,1024.1
2017-04-06T02:11:15.235Z,1024.11
2017-04-06T02:12:37.182Z,1024.14
2017-04-06T02:13:59.345Z,1024.15
2017-04-06T02:15:21.797Z,1024.09
2017-04-06T02:16:44.246Z,1024.16
2017-04-06T02:18:06.085Z,1024.14
2017-04-06T02:19:27.892Z,1024.14
2017-04-06T02:20:49.401Z,1024.22
2017-04-06T02:22:11.066Z,1024.21
2017-04-06T02:23:33.518Z,1024.19
2017-04-06T02:24:55.520Z,1024.23
2017-04-06T02:26:18.006Z,1024.18
2017-04-06T02:27:40.213Z,1024.2
2017-04-06T02:29:02.362Z,1024.19
2017-04-06T02:30:24.270Z,1024.13
2017-04-06T02:31:45.760Z,1024.17
2017-04-06T02:33:07.894Z,1024.2
2017-04-06T02:34:29.404Z,1024.23
2017-04-06T02:35:51.853Z,1024.22
2017-04-06T02:37:14.398Z,1024.2
2017-04-06T02:38:36.659Z,1024.21
2017-04-06T02:39:58.799Z,1024.23
2017-04-06T02:41:21.356Z,1024.22
2017-04-06T02:42:44.346Z,1024.24
2017-04-06T02:44:06.496Z,1024.25
2017-04-06T02:45:28.305Z,1024.32
2017-04-06T02:46:50.786Z,1024.35
2017-04-06T02:48:12.845Z,1024.39
2017-04-06T02:49:34.984Z,1024.43
2017-04-06T02:50:56.804Z,1024.49
2017-04-06T02:52:18.325Z,1024.45
2017-04-06T02:53:41.076Z,1024.41
2017-04-06T02:55:03.557Z,1024.46
2017-04-06T02:56:25.685Z,1024.46
2017-04-06T02:57:46.885Z,1024.46
2017-04-06T02:59:08.702Z,1024.44
2017-04-06T03:00:30.656Z,1024.41
2017-04-06T03:01:52.697Z,1024.44
2017-04-06T03:03:14.842Z,1024.41
2017-04-06T03:04:37.619Z,1024.44
2017-04-06T03:06:00.076Z,1024.43
2017-04-06T03:07:21.905Z,1024.46
2017-04-06T03:08:43.725Z,1024.48
2017-04-06T03:10:06.195Z,1024.51
2017-04-06T03:11:28.698Z,1024.49
2017-04-06T03:12:50.828Z,1024.46
2017-04-06T03:14:12.314Z,1024.48
2017-04-06T03:15:34.481Z,1024.53
2017-04-06T03:16:56.680Z,1024.58
2017-04-06T03:18:18.571Z,1024.52
2017-04-06T03:19:40.508Z,1024.54
2017-04-06T03:21:02.933Z,1024.56
2017-04-06T03:22:25.154Z,1024.57
2017-04-06T03:23:46.683Z,1024.58
2017-04-06T03:25:09.924Z,1024.58
2017-04-06T03:26:32.034Z,1024.57
2017-04-06T03:27:53.861Z,1024.65
2017-04-06T03:29:15.347Z,1024.61
2017-04-06T03:30:37.168Z,1024.65
2017-04-06T03:31:59.656Z,1024.67
2017-04-06T03:33:21.457Z,1024.64
2017-04-06T03:34:43.586Z,1024.68
2017-04-06T03:36:05.449Z,1024.75
2017-04-06T03:37:27.822Z,1024.82
2017-04-06T03:38:50.063Z,1024.76
2017-04-06T03:40:11.874Z,1024.78
2017-04-06T03:41:33.683Z,1024.74
2017-04-06T03:42:55.840Z,1024.72
2017-04-06T03:44:17.963Z,1024.75
2017-04-06T03:45:39.791Z,1024.78
2017-04-06T03:47:01.705Z,1024.76
2017-04-06T03:48:23.838Z,1024.77
2017-04-06T03:49:45.655Z,1024.74
2017-04-06T03:51:07.473Z,1024.79
2017-04-06T03:52:29.605Z,1024.82
2017-04-06T03:53:51.725Z,1024.81
2017-04-06T03:55:14.162Z,1024.78
2017-04-06T03:56:35.988Z,1024.88
2017-04-06T03:57:57.809Z,1024.81
2017-04-06T03:59:19.866Z,1024.81
2017-04-06T04:00:41.043Z,1024.78
2017-04-06T04:02:02.224Z,1024.77
2017-04-06T04:03:23.718Z,1024.8
2017-04-06T04:04:45.712Z,1024.8
2017-04-06T04:06:07.844Z,1024.82
2017-04-06T04:07:29.679Z,1024.85
2017-04-06T04:08:51.805Z,1024.94
2017-04-06T04:10:13.565Z,1024.9
2017-04-06T04:11:35.716Z,1024.92
2017-04-06T04:13:01.483Z,1024.87
2017-04-06T04:15:26.203Z,1024.93
2017-04-06T04:16:48.653Z,1024.88
2017-04-06T04:18:10.424Z,1024.82
2017-04-06T04:19:32.548Z,1024.94
2017-04-06T04:20:54.666Z,1024.89
2017-04-06T04:22:16.246Z,1024.74
2017-04-06T04:23:37.736Z,1024.79
2017-04-06T04:24:59.548Z,1024.86
2017-04-06T04:31:40.918Z,1024.93
2017-04-06T04:33:03.055Z,1025.01
2017-04-06T04:34:26.294Z,1024.93
2017-04-06T04:36:20.163Z,1024.97
2017-04-06T04:37:42.605Z,1024.93
2017-04-06T04:39:05.147Z,1024.98
2017-04-06T04:40:26.675Z,1025
2017-04-06T04:41:48.808Z,1025.02
2017-04-06T04:43:11.403Z,1024.98
2017-04-06T04:44:33.595Z,1024.94
2017-04-06T04:45:55.798Z,1024.96
2017-04-06T04:47:17.899Z,1024.96
2017-04-06T04:48:40.047Z,1024.96
2017-04-06T04:50:02.299Z,1024.92
2017-04-06T04:51:24.774Z,1024.92
2017-04-06T04:52:46.547Z,1024.98
2017-04-06T04:54:08.407Z,1024.96
2017-04-06T04:55:30.874Z,1024.96
2017-04-06T04:56:52.847Z,1024.98
2017-04-06T04:58:15.308Z,1025
2017-04-06T04:59:37.136Z,1025.05
2017-04-06T05:00:58.635Z,1025.05
2017-04-06T05:02:20.766Z,1025.08
2017-04-06T05:03:43.157Z,1025.1
2017-04-06T05:05:05.585Z,1025.09
2017-04-06T05:06:27.416Z,1025.09
2017-04-06T05:07:49.551Z,1025.08
2017-04-06T05:09:11.826Z,1025.1
2017-04-06T05:10:34.334Z,1025.1
2017-04-06T05:11:55.825Z,1025.09
2017-04-06T05:13:17.334Z,1025.14
2017-04-06T05:14:39.435Z,1025.13
2017-04-06T05:16:01.956Z,1025.16
2017-04-06T05:17:23.475Z,1025.21
2017-04-06T05:18:45.772Z,1025.21
2017-04-06T05:20:08.587Z,1025.3
2017-04-06T05:21:30.733Z,1025.31
2017-04-06T05:22:52.560Z,1025.35
2017-04-06T05:24:14.382Z,1025.36
2017-04-06T05:25:36.925Z,1025.41
2017-04-06T05:26:58.709Z,1025.42
2017-04-06T05:28:20.539Z,1025.44
2017-04-06T05:29:41.770Z,1025.46
2017-04-06T05:31:03.867Z,1025.48
2017-04-06T05:32:26.017Z,1025.55
2017-04-06T05:33:48.477Z,1025.57
2017-04-06T05:35:10.297Z,1025.52
2017-04-06T05:36:32.162Z,1025.59
2017-04-06T05:37:54.310Z,1025.59
2017-04-06T05:39:16.147Z,1025.59
2017-04-06T05:40:38.624Z,1025.62
2017-04-06T05:42:00.087Z,1025.66
2017-04-06T05:43:22.307Z,1025.66
2017-04-06T05:44:44.446Z,1025.65
2017-04-06T05:46:05.948Z,1025.64
2017-04-06T05:47:28.674Z,1025.66
2017-04-06T05:48:50.168Z,1025.67
2017-04-06T05:50:12.327Z,1025.68
2017-04-06T05:51:34.163Z,1025.68
2017-04-06T05:52:56.262Z,1025.72
2017-04-06T05:54:18.418Z,1025.71
2017-04-06T05:55:39.929Z,1025.65
2017-04-06T05:57:01.807Z,1025.72
2017-04-06T05:58:24.866Z,1025.76
2017-04-06T05:59:46.989Z,1025.78
2017-04-06T06:01:08.845Z,1025.72
2017-04-06T06:02:31.015Z,1025.84
2017-04-06T06:03:53.417Z,1025.89
2017-04-06T06:05:15.559Z,1025.81
2017-04-06T06:06:37.061Z,1025.9
2017-04-06T06:07:59.218Z,1025.97
2017-04-06T06:09:21.714Z,1026.07
2017-04-06T06:10:44.184Z,1026.03
2017-04-06T06:12:06.636Z,1026.12
2017-04-06T06:13:28.459Z,1026.11
2017-04-06T06:14:50.934Z,1026.1
2017-04-06T06:16:13.337Z,1026.1
2017-04-06T06:17:35.240Z,1026.08
2017-04-06T06:18:57.072Z,1026.12
2017-04-06T06:20:18.883Z,1026.17
2017-04-06T06:21:41.060Z,1026.21
2017-04-06T06:23:02.890Z,1026.19
2017-04-06T06:24:25.373Z,1026.15
2017-04-06T06:25:47.896Z,1026.18
2017-04-06T06:27:09.469Z,1026.15
2017-04-06T06:28:31.322Z,1026.16
2017-04-06T06:29:53.581Z,1026.11
2017-04-06T06:31:16.045Z,1026.07
2017-04-06T06:32:37.867Z,1026.1
2017-04-06T06:33:59.995Z,1026.06
2017-04-06T06:35:22.279Z,1026.1
2017-04-06T06:36:44.356Z,1026.27
2017-04-06T06:38:06.385Z,1026.41
2017-04-06T06:39:27.882Z,1026.36
2017-04-06T06:40:50.004Z,1026.33
2017-04-06T06:42:11.827Z,1026.29
2017-04-06T06:43:33.977Z,1026.37
2017-04-06T06:44:55.166Z,1026.25
2017-04-06T06:46:17.253Z,1026.2
2017-04-06T06:47:39.946Z,1026.47
2017-04-06T06:49:02.923Z,1026.44
2017-04-06T06:50:23.909Z,1026.3
2017-04-06T06:51:45.156Z,1026.46
2017-04-06T06:53:07.237Z,1026.48
2017-04-06T06:54:29.377Z,1026.48
2017-04-06T06:55:51.197Z,1026.48
2017-04-06T06:57:13.042Z,1026.45
2017-04-06T06:58:35.432Z,1026.37
2017-04-06T06:59:56.969Z,1026.46
2017-04-06T07:01:18.814Z,1026.33
2017-04-06T07:02:40.774Z,1026.32
2017-04-06T07:04:03.507Z,1026.39
2017-04-06T07:05:25.787Z,1026.44
2017-04-06T07:06:48.256Z,1026.44
2017-04-06T07:08:10.184Z,1026.53
2017-04-06T07:09:32.332Z,1026.55
2017-04-06T07:10:54.464Z,1026.4
2017-04-06T07:12:16.618Z,1026.49
2017-04-06T07:13:39.110Z,1026.45
2017-04-06T07:15:01.564Z,1026.46
2017-04-06T07:16:23.722Z,1026.49
2017-04-06T07:17:45.756Z,1026.48
2017-04-06T07:19:07.927Z,1026.55
2017-04-06T07:20:29.779Z,1026.61
2017-04-06T07:21:51.298Z,1026.51
2017-04-06T07:23:13.521Z,1026.56
2017-04-06T07:24:35.669Z,1026.56
2017-04-06T07:25:58.395Z,1026.61
2017-04-06T07:27:20.229Z,1026.52
2017-04-06T07:28:42.053Z,1026.57
2017-04-06T07:30:03.556Z,1026.67
2017-04-06T07:31:25.794Z,1026.66
2017-04-06T07:32:47.412Z,1026.62
2017-04-06T07:34:09.325Z,1026.75
2017-04-06T07:35:31.471Z,1026.71
2017-04-06T07:36:53.555Z,1026.74
2017-04-06T07:38:16.043Z,1026.68
2017-04-06T07:39:38.526Z,1026.62
2017-04-06T07:41:00.345Z,1026.65
2017-04-06T07:42:21.903Z,1026.7
2017-04-06T07:43:43.733Z,1026.81
2017-04-06T07:45:05.553Z,1026.75
2017-04-06T07:46:27.708Z,1026.65
2017-04-06T07:47:49.555Z,1026.7
2017-04-06T07:49:11.507Z,1026.74
2017-04-06T07:50:33.527Z,1026.76
2017-04-06T07:51:55.717Z,1026.78
2017-04-06T07:53:18.428Z,1026.84
2017-04-06T07:54:40.267Z,1026.78
2017-04-06T07:56:02.425Z,1026.81
2017-04-06T07:57:24.609Z,1026.88
2017-04-06T07:58:46.377Z,1026.83
2017-04-06T08:00:08.113Z,1026.9
2017-04-06T08:01:29.639Z,1026.88
2017-04-06T08:02:51.464Z,1026.94
2017-04-06T08:04:13.587Z,1026.85
2017-04-06T08:05:35.423Z,1026.93
2017-04-06T08:06:57.296Z,1026.95
2017-04-06T08:08:19.476Z,1026.88
2017-04-06T08:09:41.628Z,1027.12
2017-04-06T08:11:03.137Z,1026.97
2017-04-06T08:12:24.961Z,1027.09
2017-04-06T08:13:46.805Z,1027.15
2017-04-06T08:15:09.258Z,1027.1
2017-04-06T08:16:31.424Z,1027.09
2017-04-06T08:18:25.558Z,1026.96
2017-04-06T08:19:47.451Z,1027.11
2017-04-06T08:21:10.017Z,1027.03
2017-04-06T08:22:31.826Z,1027.14
2017-04-06T08:23:54.376Z,1027.16
2017-04-06T08:25:16.521Z,1027.15
2017-04-06T08:26:38.940Z,1027.2
2017-04-06T08:28:01.061Z,1027.4
2017-04-06T08:29:23.229Z,1027.38
2017-04-06T08:30:45.365Z,1027.26
2017-04-06T08:32:06.862Z,1027.32
2017-04-06T08:33:28.673Z,1027.32
2017-04-06T08:34:50.497Z,1027.38
2017-04-06T08:36:12.636Z,1027.35
2017-04-06T08:37:34.904Z,1027.36
2017-04-06T08:38:56.846Z,1027.39
2017-04-06T08:40:19.323Z,1027.54
2017-04-06T08:41:40.825Z,1027.51
2017-04-06T08:43:02.697Z,1027.54
2017-04-06T08:44:25.275Z,1027.55
2017-04-06T08:45:47.118Z,1027.67
2017-04-06T08:47:08.767Z,1027.65
2017-04-06T08:48:31.526Z,1027.62
2017-04-06T08:49:53.356Z,1027.67
2017-04-06T08:51:15.578Z,1027.62
2017-04-06T08:52:37.498Z,1027.58
2017-04-06T08:53:59.269Z,1027.7
2017-04-06T08:55:21.419Z,1027.63
2017-04-06T08:56:43.685Z,1027.79
2017-04-06T08:58:06.142Z,1027.7
2017-04-06T08:59:27.981Z,1027.65
2017-04-06T09:00:49.825Z,1027.66
2017-04-06T09:02:11.955Z,1027.71
2017-04-06T09:03:33.795Z,1027.79
2017-04-06T09:04:56.575Z,1027.7
2017-04-06T09:06:19.054Z,1027.66
2017-04-06T09:07:41.209Z,1027.65
2017-04-06T09:09:02.737Z,1027.69
2017-04-06T09:10:24.635Z,1027.83
2017-04-06T09:11:46.566Z,1027.77
2017-04-06T09:13:08.076Z,1027.98
2017-04-06T09:14:29.894Z,1027.8
2017-04-06T09:15:52.620Z,1027.79
2017-04-06T09:17:14.161Z,1027.9
2017-04-06T09:18:35.763Z,1027.9
2017-04-06T09:19:58.204Z,1027.87
2017-04-06T09:21:20.023Z,1027.86
2017-04-06T09:22:41.911Z,1027.96
2017-04-06T09:24:03.483Z,1027.89
2017-04-06T09:25:25.706Z,1027.85
2017-04-06T09:26:48.420Z,1027.78
2017-04-06T09:28:09.935Z,1027.83
2017-04-06T09:29:32.095Z,1027.95
2017-04-06T09:30:54.578Z,1027.83
2017-04-06T09:32:17.040Z,1027.77
2017-04-06T09:33:38.853Z,1027.78
2017-04-06T09:35:00.413Z,1027.85
2017-04-06T09:36:22.578Z,1027.82
2017-04-06T09:37:45.037Z,1027.8
2017-04-06T09:39:07.216Z,1027.81
2017-04-06T09:40:29.366Z,1027.81
2017-04-06T09:41:51.279Z,1027.85
2017-04-06T09:43:14.041Z,1027.77
2017-04-06T09:44:35.686Z,1027.79
2017-04-06T09:45:57.525Z,1027.87
2017-04-06T09:47:19.871Z,1027.82
2017-04-06T09:48:42.056Z,1027.81
2017-04-06T09:50:04.503Z,1027.86
2017-04-06T09:51:26.346Z,1027.76
2017-04-06T09:52:47.855Z,1027.78
2017-04-06T09:54:09.663Z,1027.7
2017-04-06T09:55:32.171Z,1027.73
2017-04-06T09:56:53.995Z,1027.74
2017-04-06T09:58:16.131Z,1027.65
2017-04-06T09:59:38.259Z,1027.72
2017-04-06T10:01:00.392Z,1027.72
2017-04-06T10:02:22.540Z,1027.8
2017-04-06T10:03:44.714Z,1027.83
2017-04-06T10:05:07.247Z,1027.82
2017-04-06T10:06:29.442Z,1027.81
2017-04-06T10:07:51.937Z,1027.8
2017-04-06T10:09:14.394Z,1027.79
2017-04-06T10:10:36.507Z,1027.87
2017-04-06T10:11:58.421Z,1027.87
2017-04-06T10:13:20.574Z,1027.78
2017-04-06T10:14:42.133Z,1027.77
2017-04-06T10:16:04.364Z,1027.73
2017-04-06T10:17:25.672Z,1027.78
2017-04-06T10:18:47.555Z,1027.82
2017-04-06T10:20:09.796Z,1027.82
2017-04-06T10:21:32.051Z,1027.88
2017-04-06T10:22:54.564Z,1027.91
2017-04-06T10:24:16.769Z,1027.83
2017-04-06T10:25:38.907Z,1027.96
2017-04-06T10:27:01.676Z,1027.88
2017-04-06T10:28:23.889Z,1027.85
2017-04-06T10:29:46.019Z,1027.89
2017-04-06T10:31:08.194Z,1027.79
2017-04-06T10:32:30.656Z,1027.72
2017-04-06T10:33:52.540Z,1027.76
2017-04-06T10:35:14.826Z,1027.78
2017-04-06T10:36:36.382Z,1027.77
2017-04-06T10:37:58.800Z,1027.81
2017-04-06T10:39:20.616Z,1027.75
2017-04-06T10:40:42.777Z,1027.77
2017-04-06T10:42:04.608Z,1027.74
2017-04-06T10:43:26.726Z,1027.77
2017-04-06T10:44:48.876Z,1027.82
2017-04-06T10:46:10.375Z,1027.78
2017-04-06T10:47:31.908Z,1027.81
2017-04-06T10:48:54.365Z,1027.81
2017-04-06T10:50:16.498Z,1027.84
2017-04-06T10:51:38.645Z,1027.77
2017-04-06T10:53:00.879Z,1027.8
2017-04-06T10:54:22.946Z,1027.87
2017-04-06T10:55:44.779Z,1027.81
2017-04-06T10:57:06.614Z,1027.87
2017-04-06T10:58:28.488Z,1027.82
2017-04-06T10:59:50.947Z,1027.77
2017-04-06T11:01:12.776Z,1027.59
2017-04-06T11:02:34.590Z,1027.55
2017-04-06T11:03:56.421Z,1027.57
2017-04-06T11:05:18.601Z,1027.56
2017-04-06T11:06:40.436Z,1027.68
2017-04-06T11:08:02.921Z,1027.67
2017-04-06T11:09:24.570Z,1027.59
2017-04-06T11:10:46.395Z,1027.63
2017-04-06T11:12:08.270Z,1027.71
2017-04-06T11:13:30.098Z,1027.68
2017-04-06T11:14:51.946Z,1027.79
2017-04-06T11:16:14.170Z,1027.67
2017-04-06T11:17:36.313Z,1027.77
2017-04-06T11:18:58.773Z,1027.75
2017-04-06T11:20:20.797Z,1027.67
2017-04-06T11:21:43.508Z,1027.73
2017-04-06T11:23:05.357Z,1027.73
2017-04-06T11:24:27.500Z,1027.65
2017-04-06T11:25:50.010Z,1027.7
2017-04-06T11:27:12.517Z,1027.81
2017-04-06T11:28:34.994Z,1027.79
2017-04-06T11:29:56.817Z,1027.77
2017-04-06T11:31:19.293Z,1027.89
2017-04-06T11:32:41.669Z,1027.74
2017-04-06T11:34:04.346Z,1027.85
2017-04-06T11:35:26.967Z,1027.93
2017-04-06T11:36:49.474Z,1027.86
2017-04-06T11:38:11.878Z,1028.01
2017-04-06T11:39:34.347Z,1027.91
2017-04-06T11:40:56.943Z,1027.8
2017-04-06T11:42:18.561Z,1027.85
2017-04-06T11:43:41.086Z,1027.81
2017-04-06T11:45:02.916Z,1027.79
2017-04-06T11:46:24.444Z,1027.77
2017-04-06T11:47:45.955Z,1027.75
2017-04-06T11:49:08.982Z,1027.79
2017-04-06T11:50:30.597Z,1027.88
2017-04-06T11:51:52.758Z,1027.85
2017-04-06T11:53:14.268Z,1027.72
2017-04-06T11:54:36.415Z,1027.73
2017-04-06T11:55:58.267Z,1027.65
2017-04-06T11:57:20.124Z,1027.61
2017-04-06T11:58:42.295Z,1027.75
2017-04-06T12:00:04.417Z,1027.66
2017-04-06T12:01:26.566Z,1027.75
2017-04-06T12:02:49.168Z,1027.84
2017-04-06T12:04:11.329Z,1027.78
2017-04-06T12:05:33.792Z,1027.84
2017-04-06T12:06:56.257Z,1027.72
2017-04-06T12:08:18.397Z,1027.58
2017-04-06T12:09:40.224Z,1027.52
2017-04-06T12:11:02.696Z,1027.57
2017-04-06T12:12:24.081Z,1027.58
2017-04-06T12:13:46.584Z,1027.66
2017-04-06T12:15:08.422Z,1027.69
2017-04-06T12:16:30.915Z,1027.68
2017-04-06T12:17:53.368Z,1027.72
2017-04-06T12:19:15.582Z,1027.71
2017-04-06T12:20:37.729Z,1027.74
2017-04-06T12:21:59.864Z,1027.73
2017-04-06T12:23:22.034Z,1027.64
2017-04-06T12:24:44.508Z,1027.56
2017-04-06T12:26:06.646Z,1027.59
2017-04-06T12:27:28.146Z,1027.56
2017-04-06T12:28:50.675Z,1027.62
2017-04-06T12:32:06.748Z,1027.54
2017-04-06T12:33:29.166Z,1027.45
2017-04-06T12:34:51.315Z,1027.57
2017-04-06T12:36:13.206Z,1027.55
2017-04-06T12:37:35.321Z,1027.52
2017-04-06T12:38:57.862Z,1027.46
2017-04-06T12:40:20.036Z,1027.52
2017-04-06T12:41:42.185Z,1027.53
2017-04-06T12:43:04.329Z,1027.41
2017-04-06T12:44:26.905Z,1027.39
2017-04-06T12:45:49.371Z,1027.3
2017-04-06T12:47:11.513Z,1027.34
2017-04-06T12:48:33.295Z,1027.45
2017-04-06T12:49:55.189Z,1027.25
2017-04-06T12:51:17.356Z,1027.21
2017-04-06T12:52:39.494Z,1027.35
2017-04-06T12:54:02.051Z,1027.38
2017-04-06T12:55:24.206Z,1027.26
2017-04-06T12:56:46.135Z,1027.25
2017-04-06T12:58:08.305Z,1027.21
2017-04-06T12:59:31.044Z,1027.29
2017-04-06T13:00:53.217Z,1027.3
2017-04-06T13:02:15.132Z,1027.27
2017-04-06T13:03:37.366Z,1027.15
2017-04-06T13:05:01.784Z,1027.13
2017-04-06T13:06:24.170Z,1027.28
2017-04-06T13:08:18.105Z,1027.25
2017-04-06T13:09:40.575Z,1027.18
2017-04-06T13:11:02.656Z,1027.11
2017-04-06T13:12:24.477Z,1027.07
2017-04-06T13:13:46.957Z,1027.02
2017-04-06T13:15:09.770Z,1027.02
2017-04-06T13:16:31.291Z,1027.07
2017-04-06T13:17:53.435Z,1027.22
2017-04-06T13:19:15.255Z,1027.18
2017-04-06T13:20:37.034Z,1027.13
2017-04-06T13:21:58.853Z,1027.16
2017-04-06T13:23:21.318Z,1027.23
2017-04-06T13:24:43.808Z,1027.08
2017-04-06T13:26:06.301Z,1027.05
2017-04-06T13:27:27.813Z,1027
2017-04-06T13:28:50.284Z,1027.12
2017-04-06T13:30:12.456Z,1027.07
2017-04-06T13:31:34.847Z,1027.05
2017-04-06T13:32:56.046Z,1027
2017-04-06T13:34:18.235Z,1026.99
2017-04-06T13:35:40.442Z,1026.93
2017-04-06T13:37:03.161Z,1027.06
2017-04-06T13:38:25.636Z,1026.88
2017-04-06T13:39:47.473Z,1026.98
2017-04-06T13:41:09.380Z,1026.99
2017-04-06T13:42:31.843Z,1026.89
2017-04-06T13:43:54.016Z,1027.04
2017-04-06T13:45:16.037Z,1026.87
2017-04-06T13:46:38.217Z,1026.99
2017-04-06T13:48:00.614Z,1026.93
2017-04-06T13:49:22.763Z,1026.76
2017-04-06T13:50:44.911Z,1026.84
2017-04-06T13:52:07.058Z,1026.84
2017-04-06T13:53:29.458Z,1027
2017-04-06T13:54:51.934Z,1026.99
2017-04-06T13:56:14.095Z,1026.91
2017-04-06T13:57:36.293Z,1026.89
2017-04-06T13:58:58.741Z,1026.89
2017-04-06T14:00:20.296Z,1026.9
2017-04-06T14:01:42.151Z,1026.89
2017-04-06T14:03:04.640Z,1026.9
2017-04-06T14:04:26.436Z,1026.9
2017-04-06T14:05:48.596Z,1026.91
2017-04-06T14:07:10.851Z,1026.94
2017-04-06T14:08:33.021Z,1026.96
2017-04-06T14:09:55.433Z,1026.88
2017-04-06T14:11:17.608Z,1026.96
2017-04-06T14:12:39.775Z,1027.02
2017-04-06T14:14:01.967Z,1026.97
2017-04-06T14:15:23.404Z,1026.93
2017-04-06T14:16:44.964Z,1026.94
2017-04-06T14:18:06.516Z,1027.11
2017-04-06T14:19:28.727Z,1027.18
2017-04-06T14:20:51.195Z,1026.92
2017-04-06T14:22:13.356Z,1027.03
2017-04-06T14:23:35.206Z,1027.06
2017-04-06T14:24:57.736Z,1027.06
2017-04-06T14:26:19.855Z,1027.07
2017-04-06T14:27:42.103Z,1026.98
2017-04-06T14:29:04.360Z,1027.03
2017-04-06T14:30:25.877Z,1027.11
2017-04-06T14:31:48.389Z,1027.09
2017-04-06T14:33:10.554Z,1027.11
2017-04-06T14:34:32.582Z,1027.06
2017-04-06T14:35:54.787Z,1027.09
2017-04-06T14:37:17.716Z,1027.27
2017-04-06T14:38:39.524Z,1027.2
2017-04-06T14:40:01.676Z,1027.21
2017-04-06T14:41:24.132Z,1027.09
2017-04-06T14:42:46.654Z,1027.1
2017-04-06T14:44:08.805Z,1027.1
2017-04-06T14:45:31.271Z,1027.16
2017-04-06T14:46:53.494Z,1027.12
2017-04-06T14:48:16.290Z,1026.99
2017-04-06T14:49:37.804Z,1027.01
2017-04-06T14:50:59.636Z,1027.1
2017-04-06T14:52:22.169Z,1027.03
2017-04-06T14:53:44.603Z,1027.11
2017-04-06T14:55:06.957Z,1027.02
2017-04-06T14:56:28.784Z,1027.05
2017-04-06T14:57:50.931Z,1026.99
2017-04-06T14:59:13.387Z,1026.98
2017-04-06T15:00:35.234Z,1026.98
2017-04-06T15:01:57.416Z,1026.95
2017-04-06T15:03:18.958Z,1026.85
2017-04-06T15:04:41.747Z,1026.83
2017-04-06T15:06:04.046Z,1026.9
2017-04-06T15:07:26.516Z,1026.85
2017-04-06T15:08:48.675Z,1026.78
2017-04-06T15:10:11.389Z,1026.78
2017-04-06T15:11:33.267Z,1026.76
2017-04-06T15:12:55.425Z,1026.84
2017-04-06T15:14:17.263Z,1026.71
2017-04-06T15:15:39.411Z,1026.69
2017-04-06T15:17:01.587Z,1026.65
2017-04-06T15:18:23.234Z,1026.66
2017-04-06T15:19:44.760Z,1026.74
2017-04-06T15:21:07.677Z,1026.86
2017-04-06T15:22:29.198Z,1026.78
2017-04-06T15:23:50.721Z,1026.84
2017-04-06T15:25:13.191Z,1026.76
2017-04-06T15:26:35.646Z,1026.76
2017-04-06T15:27:57.196Z,1026.81
2017-04-06T15:29:19.406Z,1026.76
2017-04-06T15:30:41.565Z,1026.82
2017-04-06T15:32:04.361Z,1026.73
2017-04-06T15:33:26.568Z,1026.8
2017-04-06T15:34:48.469Z,1026.67
2017-04-06T15:36:10.954Z,1026.69
2017-04-06T15:37:33.803Z,1026.75
2017-04-06T15:38:56.275Z,1026.67
2017-04-06T15:40:18.212Z,1026.66
2017-04-06T15:41:40.086Z,1026.68
2017-04-06T15:43:02.578Z,1026.67
2017-04-06T15:44:25.063Z,1026.72
2017-04-06T15:45:47.396Z,1026.79
2017-04-06T15:47:09.564Z,1026.76
2017-04-06T15:48:31.876Z,1026.76
2017-04-06T15:49:53.898Z,1026.75
2017-04-06T15:51:15.766Z,1026.74
2017-04-06T15:52:38.459Z,1026.68
2017-04-06T15:54:01.251Z,1026.68
2017-04-06T15:55:23.964Z,1026.73
2017-04-06T15:56:46.144Z,1026.76
2017-04-06T15:58:08.679Z,1026.86
2017-04-06T15:59:31.098Z,1026.68
2017-04-06T16:00:53.458Z,1026.78
2017-04-06T16:02:15.011Z,1026.7
2017-04-06T16:03:37.266Z,1026.69
2017-04-06T16:04:59.686Z,1026.82
2017-04-06T16:06:21.644Z,1026.81
2017-04-06T16:07:43.736Z,1026.85
2017-04-06T16:09:06.256Z,1026.78
2017-04-06T16:10:29.035Z,1026.91
2017-04-06T16:11:51.210Z,1026.89
2017-04-06T16:13:13.701Z,1026.78
2017-04-06T16:14:36.426Z,1026.82
2017-04-06T16:15:59.279Z,1026.86
2017-04-06T16:17:21.977Z,1026.85
2017-04-06T16:18:44.487Z,1026.9
2017-04-06T16:20:06.661Z,1026.83
2017-04-06T16:21:29.166Z,1026.89
2017-04-06T16:22:51.684Z,1026.85
2017-04-06T16:24:13.884Z,1026.84
2017-04-06T16:25:35.749Z,1026.89
2017-04-06T16:26:57.848Z,1026.8
2017-04-06T16:28:20.473Z,1026.84
2017-04-06T16:29:42.357Z,1026.76
2017-04-06T16:31:04.863Z,1026.84
2017-04-06T16:32:27.680Z,1026.82
2017-04-06T16:33:49.819Z,1026.86
2017-04-06T16:35:12.618Z,1026.77
2017-04-06T16:36:34.785Z,1026.76
2017-04-06T16:37:57.016Z,1026.71
2017-04-06T16:39:19.554Z,1026.73
2017-04-06T16:40:41.395Z,1026.65
2017-04-06T16:42:03.134Z,1026.71
2017-04-06T16:43:26.024Z,1026.75
2017-04-06T16:44:48.506Z,1026.76
2017-04-06T16:46:10.667Z,1026.74